Hiland, Wyoming
Current Conditions -  °F | °C
As of 8:53 AM on Sunday 21 Dec 2014 (Local Time) from KCPR Reporting Station
Few Clouds Few Clouds  
Wind Chill: 27°   Ceiling: Unl
Heat Index: 37°   Visibility: 10mi
Dew Point: 28°   Wind: 20mph
Humidity: 70%   Direction: 220°SW
Pressure: 29.57"   Gusts: 32mph
Location:  43.12°N, 107.35°W
Report Text: KCPR 211553Z 22017G28KT 10SM FEW095 03/M02 A2957 RMK AO2 PK WND 22039/1503 SLP020 T00281022
Loading
Personal Weather Stations






























Interactive Weather Map New forecast layout! Learn more

10-Day Weather Forecast

Advertisements
Track Severe Weather on mobile